createdAt,value
2022-07-25T00:00:16.291Z,99488.81
2022-07-25T00:02:44.690Z,99491.47
2022-07-25T00:05:12.672Z,99490.22
2022-07-25T00:07:40.603Z,99489.53
2022-07-25T00:10:09.417Z,99485.63
2022-07-25T00:12:38.803Z,99487.03
2022-07-25T00:15:07.297Z,99478.75
2022-07-25T00:17:35.622Z,99478.00
2022-07-25T00:20:04.356Z,99480.69
2022-07-25T00:22:33.782Z,99499.94
2022-07-25T00:25:02.274Z,99497.19
2022-07-25T00:27:30.775Z,99489.87
2022-07-25T00:29:58.730Z,99480.25
2022-07-25T00:35:12.036Z,99493.34
2022-07-25T00:37:40.372Z,99485.50
2022-07-25T00:40:09.000Z,99487.50
2022-07-25T00:42:37.225Z,99478.72
2022-07-25T00:45:06.229Z,99486.22
2022-07-25T00:47:34.153Z,99485.75
2022-07-25T00:50:02.037Z,99479.44
2022-07-25T00:52:31.095Z,99474.78
2022-07-25T00:54:59.048Z,99479.22
2022-07-25T00:57:27.057Z,99467.81
2022-07-25T00:59:55.492Z,99473.16
2022-07-25T01:02:23.911Z,99478.09
2022-07-25T01:04:52.308Z,99476.13
2022-07-25T01:07:20.753Z,99461.06
2022-07-25T01:09:49.174Z,99463.44
2022-07-25T01:12:17.107Z,99468.19
2022-07-25T01:14:45.346Z,99471.50
2022-07-25T01:17:13.825Z,99480.50
2022-07-25T01:19:41.821Z,99467.53
2022-07-25T01:22:10.123Z,99459.91
2022-07-25T01:24:39.558Z,99468.50
2022-07-25T01:27:07.528Z,99468.50
2022-07-25T01:29:36.109Z,99469.97
2022-07-25T01:32:04.252Z,99476.78
2022-07-25T01:34:32.186Z,99473.97
2022-07-25T01:37:00.414Z,99474.81
2022-07-25T01:39:28.329Z,99484.19
2022-07-25T01:41:56.249Z,99481.72
2022-07-25T01:44:24.474Z,99480.91
2022-07-25T01:46:53.404Z,99470.75
2022-07-25T01:49:21.331Z,99486.31
2022-07-25T01:51:49.598Z,99487.12
2022-07-25T01:54:17.509Z,99476.16
2022-07-25T01:56:48.201Z,99482.69
2022-07-25T01:59:17.238Z,99473.47
2022-07-25T02:01:45.665Z,99483.59
2022-07-25T02:04:16.994Z,99485.06
2022-07-25T02:06:45.124Z,99484.75
2022-07-25T02:09:13.049Z,99478.13
2022-07-25T02:14:09.938Z,99479.47
2022-07-25T02:16:38.178Z,99482.44
2022-07-25T02:19:06.526Z,99477.78
2022-07-25T02:21:34.667Z,99475.47
2022-07-25T02:24:02.844Z,99462.94
2022-07-25T02:26:31.414Z,99465.09
2022-07-25T02:28:59.467Z,99471.44
2022-07-25T02:31:27.447Z,99474.47
2022-07-25T02:33:56.019Z,99473.66
2022-07-25T02:36:24.151Z,99456.81
2022-07-25T02:38:52.180Z,99466.38
2022-07-25T02:41:20.514Z,99470.22
2022-07-25T02:43:48.467Z,99469.94
2022-07-25T02:46:16.395Z,99466.72
2022-07-25T02:48:44.805Z,99465.09
2022-07-25T02:51:12.858Z,99470.94
2022-07-25T02:53:56.730Z,99465.81
2022-07-25T02:56:29.615Z,99471.06
2022-07-25T02:58:58.596Z,99469.03
2022-07-25T03:01:29.691Z,99460.75
2022-07-25T03:03:57.762Z,99453.09
2022-07-25T03:06:26.220Z,99451.16
2022-07-25T03:08:54.151Z,99453.19
2022-07-25T03:11:22.265Z,99457.34
2022-07-25T03:13:50.674Z,99453.19
2022-07-25T03:16:18.559Z,99453.28
2022-07-25T03:18:46.444Z,99448.50
2022-07-25T03:21:14.714Z,99457.91
2022-07-25T03:23:42.574Z,99450.81
2022-07-25T03:26:10.417Z,99456.44
2022-07-25T03:28:38.648Z,99450.22
2022-07-25T03:31:06.565Z,99453.22
2022-07-25T03:33:35.324Z,99454.34
2022-07-25T03:36:03.866Z,99452.78
2022-07-25T03:38:31.840Z,99448.34
2022-07-25T03:40:59.665Z,99454.63
2022-07-25T03:43:27.874Z,99450.91
2022-07-25T03:45:55.845Z,99443.00
2022-07-25T03:48:23.893Z,99453.97
2022-07-25T03:50:52.177Z,99453.16
2022-07-25T03:53:20.004Z,99460.13
2022-07-25T03:55:47.862Z,99454.41
2022-07-25T03:58:16.161Z,99458.19
2022-07-25T04:00:44.089Z,99457.38
2022-07-25T04:03:12.301Z,99456.91
2022-07-25T04:09:02.422Z,99449.63
2022-07-25T04:11:31.334Z,99445.50
2022-07-25T04:13:59.685Z,99445.75
2022-07-25T04:16:27.884Z,99441.81
2022-07-25T04:18:56.878Z,99438.19
2022-07-25T04:21:25.397Z,99439.09
2022-07-25T04:23:55.621Z,99435.22
2022-07-25T04:26:26.522Z,99445.69
2022-07-25T04:28:54.425Z,99438.34
2022-07-25T04:31:22.280Z,99437.75
2022-07-25T04:33:50.616Z,99430.75
2022-07-25T04:36:18.513Z,99440.41
2022-07-25T04:38:46.453Z,99436.09
2022-07-25T04:41:14.738Z,99443.66
2022-07-25T04:43:47.979Z,99433.31
2022-07-25T04:46:21.081Z,99428.41
2022-07-25T04:48:50.056Z,99422.44
2022-07-25T04:51:19.206Z,99432.66
2022-07-25T04:53:47.128Z,99428.91
2022-07-25T04:56:15.060Z,99424.59
2022-07-25T04:58:45.594Z,99427.47
2022-07-25T05:01:13.612Z,99428.97
2022-07-25T05:03:41.599Z,99424.19
2022-07-25T05:06:19.929Z,99421.59
2022-07-25T05:08:48.756Z,99420.50
2022-07-25T05:11:16.590Z,99410.44
2022-07-25T05:13:44.999Z,99417.13
2022-07-25T05:16:12.912Z,99420.47
2022-07-25T05:18:40.985Z,99416.31
2022-07-25T05:21:12.164Z,99419.72
2022-07-25T05:23:40.393Z,99416.34
2022-07-25T05:26:08.434Z,99406.87
2022-07-25T05:28:36.761Z,99405.81
2022-07-25T05:31:05.204Z,99411.31
2022-07-25T05:33:35.385Z,99403.72
2022-07-25T05:36:05.447Z,99396.09
2022-07-25T05:38:33.780Z,99396.59
2022-07-25T05:41:01.662Z,99411.78
2022-07-25T05:43:29.888Z,99405.84
2022-07-25T05:46:02.487Z,99396.97
2022-07-25T05:48:31.226Z,99386.84
2022-07-25T05:50:59.784Z,99390.84
2022-07-25T05:53:28.123Z,99387.12
2022-07-25T05:55:56.339Z,99394.38
2022-07-25T05:58:43.255Z,99390.31
2022-07-25T06:01:15.793Z,99384.66
2022-07-25T06:03:44.343Z,99384.00
2022-07-25T06:06:12.371Z,99375.66
2022-07-25T06:08:40.582Z,99379.28
2022-07-25T06:11:09.063Z,99371.13
2022-07-25T06:13:37.634Z,99374.66
2022-07-25T06:16:06.469Z,99383.87
2022-07-25T06:18:34.847Z,99367.66
2022-07-25T06:21:02.875Z,99364.16
2022-07-25T06:23:32.223Z,99372.38
2022-07-25T06:26:00.485Z,99381.91
2022-07-25T06:28:28.694Z,99371.03
2022-07-25T06:30:56.649Z,99378.34
2022-07-25T06:33:24.872Z,99371.72
2022-07-25T06:35:52.953Z,99377.59
2022-07-25T06:38:20.756Z,99365.84
2022-07-25T06:40:49.098Z,99367.38
2022-07-25T06:43:16.965Z,99359.69
2022-07-25T06:45:47.781Z,99366.84
2022-07-25T06:48:17.294Z,99363.47
2022-07-25T06:50:45.680Z,99362.38
2022-07-25T06:53:13.749Z,99364.34
2022-07-25T06:55:42.042Z,99368.87
2022-07-25T06:58:09.929Z,99357.81
2022-07-25T07:00:37.857Z,99364.00
2022-07-25T07:03:06.271Z,99357.97
2022-07-25T07:05:36.945Z,99358.91
2022-07-25T07:08:05.352Z,99357.75
2022-07-25T07:10:33.855Z,99367.28
2022-07-25T07:13:13.249Z,99356.22
2022-07-25T07:15:48.573Z,99350.47
2022-07-25T07:18:17.786Z,99351.72
2022-07-25T07:20:46.486Z,99349.03
2022-07-25T07:23:17.033Z,99354.31
2022-07-25T07:25:47.583Z,99365.53
2022-07-25T07:28:16.556Z,99351.00
2022-07-25T07:31:14.509Z,99349.84
2022-07-25T07:33:33.913Z,99356.94
2022-07-25T07:36:03.003Z,99354.66
2022-07-25T07:38:30.951Z,99361.50
2022-07-25T07:41:01.418Z,99354.44
2022-07-25T07:43:32.125Z,99364.88
2022-07-25T07:46:03.439Z,99345.03
2022-07-25T07:48:32.833Z,99350.44
2022-07-25T07:51:02.507Z,99350.38
2022-07-25T07:53:49.862Z,99368.69
2022-07-25T07:56:21.439Z,99353.53
2022-07-25T07:58:49.436Z,99349.88
2022-07-25T08:01:17.587Z,99344.09
2022-07-25T08:03:46.028Z,99356.72
2022-07-25T08:06:13.946Z,99351.59
2022-07-25T08:08:41.833Z,99341.41
2022-07-25T08:11:10.316Z,99345.44
2022-07-25T08:13:41.267Z,99343.47
2022-07-25T08:16:09.243Z,99344.03
2022-07-25T08:18:37.789Z,99353.31
2022-07-25T08:21:06.782Z,99348.28
2022-07-25T08:23:35.845Z,99348.22
2022-07-25T08:26:04.992Z,99356.72
2022-07-25T08:28:33.151Z,99349.25
2022-07-25T08:31:03.319Z,99340.97
2022-07-25T08:33:32.106Z,99345.16
2022-07-25T08:36:00.448Z,99349.47
2022-07-25T08:38:29.695Z,99358.28
2022-07-25T08:40:58.424Z,99344.06
2022-07-25T08:43:26.361Z,99347.63
2022-07-25T08:45:56.010Z,99343.16
2022-07-25T08:48:26.405Z,99347.50
2022-07-25T08:50:57.479Z,99325.72
2022-07-25T08:53:34.595Z,99348.84
2022-07-25T08:56:13.679Z,99360.44
2022-07-25T08:58:45.879Z,99367.50
2022-07-25T09:01:14.676Z,99359.34
2022-07-25T09:03:44.032Z,99369.19
2022-07-25T09:06:18.253Z,99360.19
2022-07-25T09:08:57.880Z,99353.81
2022-07-25T09:11:31.691Z,99344.47
2022-07-25T09:14:11.331Z,99343.50
2022-07-25T09:16:45.548Z,99345.78
2022-07-25T09:19:16.612Z,99327.22
2022-07-25T09:21:46.445Z,99327.31
2022-07-25T09:24:19.598Z,99341.25
2022-07-25T09:26:50.515Z,99329.59
2022-07-25T09:29:22.579Z,99326.41
2022-07-25T09:31:52.425Z,99313.88
2022-07-25T09:34:38.473Z,99326.06
2022-07-25T09:37:12.781Z,99322.78
2022-07-25T09:39:47.289Z,99323.00
2022-07-25T09:42:32.598Z,99326.66
2022-07-25T09:45:13.080Z,99318.03
2022-07-25T09:47:58.912Z,99336.56
2022-07-25T09:50:29.606Z,99329.66
2022-07-25T09:53:02.359Z,99327.72
2022-07-25T09:55:32.666Z,99330.16
2022-07-25T09:58:00.922Z,99326.16
2022-07-25T10:00:29.814Z,99335.47
2022-07-25T10:03:36.244Z,99308.84
2022-07-25T10:06:52.414Z,99316.28
2022-07-25T10:09:21.141Z,99326.50
2022-07-25T10:12:11.890Z,99320.63
2022-07-25T10:14:40.420Z,99318.78
2022-07-25T10:17:08.992Z,99318.34
2022-07-25T10:19:51.808Z,99317.94
2022-07-25T10:22:46.617Z,99324.56
2022-07-25T10:25:17.082Z,99306.31
2022-07-25T10:27:53.189Z,99311.56
2022-07-25T10:30:26.387Z,99312.81
2022-07-25T10:33:21.781Z,99303.28
2022-07-25T10:35:49.791Z,99301.59
2022-07-25T10:38:25.358Z,99314.63
2022-07-25T10:40:53.591Z,99309.16
2022-07-25T10:43:23.028Z,99317.16
2022-07-25T10:45:58.078Z,99306.97
2022-07-25T10:48:32.665Z,99313.19
2022-07-25T10:51:07.294Z,99324.88
2022-07-25T10:53:48.683Z,99304.41
2022-07-25T10:56:20.218Z,99309.44
2022-07-25T10:59:01.339Z,99305.41
2022-07-25T11:01:34.390Z,99310.22
2022-07-25T11:04:14.794Z,99308.69
2022-07-25T11:06:44.844Z,99326.06
2022-07-25T11:09:24.964Z,99312.88
2022-07-25T11:11:58.765Z,99306.28
2022-07-25T11:14:43.701Z,99301.09
2022-07-25T11:17:26.237Z,99306.16
2022-07-25T11:20:04.336Z,99299.06
2022-07-25T11:22:34.738Z,99287.31
2022-07-25T11:25:16.394Z,99291.13
2022-07-25T11:27:44.231Z,99294.97
2022-07-25T11:30:17.750Z,99295.75
2022-07-25T11:32:51.232Z,99300.53
2022-07-25T11:35:24.268Z,99288.03
2022-07-25T11:37:53.595Z,99294.72
2022-07-25T11:40:23.074Z,99292.28
2022-07-25T11:42:54.080Z,99292.66
2022-07-25T11:45:25.387Z,99294.53
2022-07-25T11:48:04.791Z,99292.22
2022-07-25T11:50:34.484Z,99297.28
2022-07-25T11:53:05.238Z,99308.88
2022-07-25T11:55:41.156Z,99304.41
2022-07-25T11:58:10.246Z,99291.03
2022-07-25T12:00:43.903Z,99287.38
2022-07-25T12:03:19.595Z,99286.34
2022-07-25T12:05:50.379Z,99287.00
2022-07-25T12:08:20.800Z,99289.22
2022-07-25T12:10:51.801Z,99290.03
2022-07-25T12:13:27.727Z,99291.78
2022-07-25T12:15:58.255Z,99285.25
2022-07-25T12:18:27.234Z,99280.44
2022-07-25T12:20:55.300Z,99275.50
2022-07-25T12:23:23.264Z,99276.59
2022-07-25T12:25:51.837Z,99273.66
2022-07-25T12:28:19.744Z,99272.81
2022-07-25T12:30:52.888Z,99266.81
2022-07-25T12:33:24.976Z,99248.88
2022-07-25T12:35:53.029Z,99254.03
2022-07-25T12:38:21.029Z,99248.69
2022-07-25T12:40:49.930Z,99256.38
2022-07-25T12:43:17.750Z,99253.66
2022-07-25T12:45:45.736Z,99270.50
2022-07-25T12:48:15.499Z,99268.41
2022-07-25T12:50:44.179Z,99280.91
2022-07-25T12:53:13.717Z,99288.09
2022-07-25T12:55:42.280Z,99277.28
2022-07-25T12:58:10.349Z,99281.81
2022-07-25T13:00:38.350Z,99278.38
2022-07-25T13:03:06.753Z,99271.38
2022-07-25T13:05:34.799Z,99286.06
2022-07-25T13:08:05.478Z,99273.50
2022-07-25T13:10:33.812Z,99279.88
2022-07-25T13:13:01.715Z,99287.66
2022-07-25T13:15:30.616Z,99287.97
2022-07-25T13:17:59.100Z,99281.62
2022-07-25T13:20:27.210Z,99276.78
2022-07-25T13:22:55.283Z,99284.87
2022-07-25T13:25:23.747Z,99288.44
2022-07-25T13:27:51.675Z,99280.53
2022-07-25T13:30:19.546Z,99275.84
2022-07-25T13:32:47.882Z,99291.22
2022-07-25T13:35:20.482Z,99279.97
2022-07-25T13:37:49.415Z,99277.37
2022-07-25T13:40:17.329Z,99273.12
2022-07-25T13:42:45.247Z,99267.31
2022-07-25T13:45:13.521Z,99272.88
2022-07-25T13:47:41.519Z,99283.09
2022-07-25T13:50:09.905Z,99282.44
2022-07-25T13:52:38.890Z,99280.16
2022-07-25T13:55:07.732Z,99285.37
2022-07-25T13:57:35.801Z,99275.03
2022-07-25T14:00:05.716Z,99272.75
2022-07-25T14:02:33.964Z,99266.44
2022-07-25T14:05:04.178Z,99264.19
2022-07-25T14:07:32.470Z,99258.88
2022-07-25T14:10:00.733Z,99257.97
2022-07-25T14:12:30.655Z,99273.31
2022-07-25T14:14:58.537Z,99258.75
2022-07-25T14:17:30.348Z,99266.09
2022-07-25T14:19:58.613Z,99266.31
2022-07-25T14:22:26.994Z,99244.91
2022-07-25T14:24:55.282Z,99240.84
2022-07-25T14:27:23.473Z,99235.41
2022-07-25T14:29:51.389Z,99240.16
2022-07-25T14:32:20.018Z,99235.31
2022-07-25T14:34:47.957Z,99236.13
2022-07-25T14:37:15.787Z,99232.31
2022-07-25T14:39:44.161Z,99231.22
2022-07-25T14:42:12.056Z,99242.50
2022-07-25T14:44:40.960Z,99247.22
2022-07-25T14:47:12.596Z,99237.69
2022-07-25T14:49:41.500Z,99247.25
2022-07-25T14:52:11.714Z,99257.00
2022-07-25T14:54:40.962Z,99260.28
2022-07-25T14:57:10.285Z,99259.09
2022-07-25T14:59:38.319Z,99257.16
2022-07-25T15:02:06.113Z,99256.56
2022-07-25T15:04:34.656Z,99256.56
2022-07-25T15:07:02.659Z,99262.72
2022-07-25T15:09:33.058Z,99260.44
2022-07-25T15:12:01.456Z,99261.06
2022-07-25T15:14:29.773Z,99260.59
2022-07-25T15:16:57.813Z,99267.97
2022-07-25T15:19:26.559Z,99269.63
2022-07-25T15:21:54.634Z,99276.66
2022-07-25T15:24:27.150Z,99268.50
2022-07-25T15:26:58.638Z,99270.88
2022-07-25T15:29:28.141Z,99270.22
2022-07-25T15:31:56.093Z,99277.63
2022-07-25T15:34:24.537Z,99281.34
2022-07-25T15:36:54.575Z,99290.78
2022-07-25T15:39:23.520Z,99301.44
2022-07-25T15:41:51.838Z,99300.78
2022-07-25T15:44:19.881Z,99301.56
2022-07-25T15:46:50.111Z,99306.13
2022-07-25T15:49:37.860Z,99299.31
2022-07-25T15:52:06.003Z,99296.75
2022-07-25T15:54:34.242Z,99305.16
2022-07-25T15:57:02.387Z,99310.62
2022-07-25T15:59:30.955Z,99313.28
2022-07-25T16:02:00.852Z,99305.94
2022-07-25T16:04:29.206Z,99296.03
2022-07-25T16:06:57.405Z,99291.16
2022-07-25T16:09:25.795Z,99299.28
2022-07-25T16:11:54.042Z,99289.75
2022-07-25T16:14:21.949Z,99286.94
2022-07-25T16:16:49.898Z,99294.50
2022-07-25T16:19:18.352Z,99290.97
2022-07-25T16:21:46.467Z,99294.34
2022-07-25T16:24:14.520Z,99295.22
2022-07-25T16:26:42.964Z,99292.06
2022-07-25T16:29:11.327Z,99301.44
2022-07-25T16:31:40.181Z,99308.34
2022-07-25T16:34:08.489Z,99309.22
2022-07-25T16:36:36.767Z,99308.91
2022-07-25T16:39:05.441Z,99309.94
2022-07-25T16:41:33.877Z,99325.88
2022-07-25T16:44:01.935Z,99331.00
2022-07-25T16:46:30.006Z,99330.94
2022-07-25T16:48:58.583Z,99347.66
2022-07-25T16:51:26.875Z,99337.25
2022-07-25T16:56:41.475Z,99337.94
2022-07-25T16:59:10.426Z,99339.78
2022-07-25T17:01:38.883Z,99344.63
2022-07-25T17:04:08.191Z,99340.50
2022-07-25T17:06:37.097Z,99342.56
2022-07-25T17:09:05.812Z,99341.66
2022-07-25T17:11:37.356Z,99344.94
2022-07-25T17:14:05.412Z,99342.38
2022-07-25T17:16:33.566Z,99345.16
2022-07-25T17:19:03.171Z,99345.50
2022-07-25T17:21:31.053Z,99363.69
2022-07-25T17:23:59.090Z,99369.13
2022-07-25T17:26:27.531Z,99383.59
2022-07-25T17:28:55.861Z,99389.16
2022-07-25T17:31:25.197Z,99389.97
2022-07-25T17:33:53.616Z,99402.50
2022-07-25T17:36:21.614Z,99408.25
2022-07-25T17:38:49.512Z,99404.28
2022-07-25T17:41:17.883Z,99405.72
2022-07-25T17:43:45.824Z,99390.81
2022-07-25T17:46:14.117Z,99381.44
2022-07-25T17:48:42.528Z,99398.37
2022-07-25T17:51:10.482Z,99409.03
2022-07-25T17:53:38.594Z,99416.84
2022-07-25T17:56:08.805Z,99422.13
2022-07-25T17:58:38.091Z,99431.34
2022-07-25T18:01:10.667Z,99435.53
2022-07-25T18:03:39.183Z,99440.53
2022-07-25T18:06:07.273Z,99425.25
2022-07-25T18:08:36.160Z,99430.78
2022-07-25T18:11:04.525Z,99435.56
2022-07-25T18:13:32.406Z,99438.94
2022-07-25T18:16:00.385Z,99435.84
2022-07-25T18:18:28.706Z,99436.13
2022-07-25T18:20:56.580Z,99440.12
2022-07-25T18:23:27.291Z,99436.72
2022-07-25T18:25:55.603Z,99437.50
2022-07-25T18:28:24.561Z,99433.88
2022-07-25T18:30:53.339Z,99426.31
2022-07-25T18:36:08.088Z,99414.13
2022-07-25T18:38:37.242Z,99411.38
2022-07-25T18:41:28.602Z,99411.03
2022-07-25T18:43:54.220Z,99413.19
2022-07-25T18:46:22.519Z,99404.75
2022-07-25T18:48:51.157Z,99400.66
2022-07-25T18:51:22.430Z,99401.50
2022-07-25T18:53:50.445Z,99402.53
2022-07-25T18:56:18.414Z,99410.00
2022-07-25T18:58:46.705Z,99415.34
2022-07-25T19:01:14.721Z,99416.16
2022-07-25T19:03:42.695Z,99419.28
2022-07-25T19:06:11.120Z,99405.09
2022-07-25T19:08:39.274Z,99409.19
2022-07-25T19:11:08.814Z,99412.28
2022-07-25T19:13:49.999Z,99417.44
2022-07-25T19:16:19.710Z,99417.44
2022-07-25T19:18:48.228Z,99407.53
2022-07-25T19:21:17.133Z,99414.69
2022-07-25T19:24:04.444Z,99421.47
2022-07-25T19:26:33.009Z,99421.91
2022-07-25T19:29:01.121Z,99421.13
2022-07-25T19:31:29.155Z,99424.63
2022-07-25T19:33:57.568Z,99419.88
2022-07-25T19:36:25.660Z,99431.84
2022-07-25T19:38:53.809Z,99419.69
2022-07-25T19:41:22.391Z,99420.25
2022-07-25T19:43:52.643Z,99435.91
2022-07-25T19:46:23.062Z,99431.81
2022-07-25T19:48:51.574Z,99436.56
2022-07-25T19:51:19.601Z,99442.34
2022-07-25T19:53:47.538Z,99436.16
2022-07-25T19:56:15.865Z,99441.31
2022-07-25T19:58:45.385Z,99439.47
2022-07-25T20:01:13.802Z,99436.56
2022-07-25T20:03:42.614Z,99441.94
2022-07-25T20:06:10.546Z,99440.47
2022-07-25T20:08:39.713Z,99446.81
2022-07-25T20:11:08.620Z,99439.63
2022-07-25T20:13:36.827Z,99439.16
2022-07-25T20:16:06.082Z,99442.75
2022-07-25T20:18:34.549Z,99432.62
2022-07-25T20:21:02.432Z,99437.03
2022-07-25T20:23:31.107Z,99432.44
2022-07-25T20:26:03.505Z,99426.81
2022-07-25T20:28:31.924Z,99435.00
2022-07-25T20:31:02.010Z,99430.91
2022-07-25T20:33:30.939Z,99435.38
2022-07-25T20:35:59.340Z,99435.16
2022-07-25T20:38:32.634Z,99434.72
2022-07-25T20:41:00.589Z,99435.94
2022-07-25T20:43:29.070Z,99437.81
2022-07-25T20:45:57.877Z,99441.75
2022-07-25T20:48:25.983Z,99435.22
2022-07-25T20:50:54.697Z,99437.87
2022-07-25T20:53:23.123Z,99435.91
2022-07-25T20:55:51.432Z,99433.91
2022-07-25T20:58:19.847Z,99438.88
2022-07-25T21:00:47.907Z,99438.72
2022-07-25T21:03:16.769Z,99441.47
2022-07-25T21:05:45.112Z,99443.59
2022-07-25T21:08:13.045Z,99435.78
2022-07-25T21:10:41.088Z,99432.00
2022-07-25T21:13:09.397Z,99437.09
2022-07-25T21:15:37.549Z,99437.84
2022-07-25T21:18:05.621Z,99443.31
2022-07-25T21:20:33.846Z,99436.22
2022-07-25T21:23:01.759Z,99440.47
2022-07-25T21:25:29.667Z,99429.22
2022-07-25T21:27:58.001Z,99440.22
2022-07-25T21:30:25.959Z,99435.41
2022-07-25T21:32:53.824Z,99432.84
2022-07-25T21:38:07.602Z,99442.66
2022-07-25T21:40:36.466Z,99439.94
2022-07-25T21:43:06.484Z,99439.59
2022-07-25T21:45:41.660Z,99445.19
2022-07-25T21:48:09.770Z,99449.66
2022-07-25T21:50:43.535Z,99448.34
2022-07-25T21:53:14.895Z,99454.34
2022-07-25T21:55:42.748Z,99448.34
2022-07-25T21:58:10.831Z,99445.75
2022-07-25T22:00:45.509Z,99457.41
2022-07-25T22:03:14.242Z,99464.94
2022-07-25T22:05:42.274Z,99469.91
2022-07-25T22:08:10.171Z,99464.56
2022-07-25T22:10:38.480Z,99468.75
2022-07-25T22:13:10.317Z,99474.38
2022-07-25T22:15:39.394Z,99470.31
2022-07-25T22:18:07.475Z,99474.44
2022-07-25T22:20:35.442Z,99459.75
2022-07-25T22:23:04.306Z,99470.50
2022-07-25T22:25:32.270Z,99472.41
2022-07-25T22:28:00.654Z,99472.00
2022-07-25T22:30:28.904Z,99471.69
2022-07-25T22:32:56.753Z,99476.13
2022-07-25T22:35:24.703Z,99474.28
2022-07-25T22:37:53.035Z,99469.00
2022-07-25T22:40:21.197Z,99469.22
2022-07-25T22:42:49.282Z,99469.19
2022-07-25T22:45:19.728Z,99470.97
2022-07-25T22:47:47.663Z,99467.03
2022-07-25T22:50:15.581Z,99469.88
2022-07-25T22:52:43.935Z,99472.25
2022-07-25T22:55:11.969Z,99467.03
2022-07-25T22:57:39.877Z,99475.87
2022-07-25T23:00:10.179Z,99478.06
2022-07-25T23:02:39.129Z,99476.22
2022-07-25T23:05:07.867Z,99484.03
2022-07-25T23:07:36.299Z,99478.44
2022-07-25T23:10:06.036Z,99480.00
2022-07-25T23:12:34.112Z,99469.81
2022-07-25T23:15:02.795Z,99485.66
2022-07-25T23:17:31.936Z,99477.69
2022-07-25T23:19:59.830Z,99482.75
2022-07-25T23:22:29.772Z,99489.25
2022-07-25T23:24:58.850Z,99489.16
2022-07-25T23:27:27.443Z,99499.94
2022-07-25T23:29:55.809Z,99491.00
2022-07-25T23:32:23.734Z,99492.94
2022-07-25T23:34:51.691Z,99491.56
2022-07-25T23:37:20.031Z,99492.94
2022-07-25T23:39:47.954Z,99490.37
2022-07-25T23:42:15.834Z,99486.97
2022-07-25T23:44:44.592Z,99488.72
2022-07-25T23:47:12.543Z,99485.69
2022-07-25T23:49:41.224Z,99484.88
2022-07-25T23:52:09.483Z,99486.03
2022-07-25T23:54:38.763Z,99484.09
2022-07-25T23:57:08.552Z,99482.22
2022-07-25T23:59:36.852Z,99482.56
